sensor_id;sensor_type;location;lat;lon;timestamp;P1;durP1;ratioP1;P2;durP2;ratioP2
32906;SDS011;19259;51.590;5.320;2022-09-13T00:01:24;16.32;;;8.58;;
32906;SDS011;19259;51.590;5.320;2022-09-13T00:03:51;13.98;;;8.70;;
32906;SDS011;19259;51.590;5.320;2022-09-13T00:06:19;14.87;;;8.65;;
32906;SDS011;19259;51.590;5.320;2022-09-13T00:08:47;13.05;;;8.08;;
32906;SDS011;19259;51.590;5.320;2022-09-13T00:11:17;14.03;;;7.85;;
32906;SDS011;19259;51.590;5.320;2022-09-13T00:13:52;13.48;;;7.78;;
32906;SDS011;19259;51.590;5.320;2022-09-13T00:16:20;13.32;;;8.33;;
32906;SDS011;19259;51.590;5.320;2022-09-13T00:18:50;14.05;;;7.92;;
32906;SDS011;19259;51.590;5.320;2022-09-13T00:21:20;14.90;;;8.63;;
32906;SDS011;19259;51.590;5.320;2022-09-13T00:23:50;15.38;;;7.85;;
32906;SDS011;19259;51.590;5.320;2022-09-13T00:26:22;16.32;;;8.35;;
32906;SDS011;19259;51.590;5.320;2022-09-13T00:28:51;14.45;;;8.03;;
32906;SDS011;19259;51.590;5.320;2022-09-13T00:31:19;17.73;;;8.43;;
32906;SDS011;19259;51.590;5.320;2022-09-13T00:33:49;14.05;;;8.28;;
32906;SDS011;19259;51.590;5.320;2022-09-13T00:36:16;12.28;;;8.35;;
32906;SDS011;19259;51.590;5.320;2022-09-13T00:38:44;10.90;;;7.22;;
32906;SDS011;19259;51.590;5.320;2022-09-13T00:41:14;13.43;;;7.87;;
32906;SDS011;19259;51.590;5.320;2022-09-13T00:46:39;14.33;;;7.58;;
32906;SDS011;19259;51.590;5.320;2022-09-13T00:51:45;11.50;;;7.85;;
32906;SDS011;19259;51.590;5.320;2022-09-13T00:54:14;15.10;;;8.00;;
32906;SDS011;19259;51.590;5.320;2022-09-13T00:56:46;13.78;;;7.28;;
32906;SDS011;19259;51.590;5.320;2022-09-13T00:59:18;13.10;;;7.25;;
32906;SDS011;19259;51.590;5.320;2022-09-13T01:01:51;11.80;;;7.40;;
32906;SDS011;19259;51.590;5.320;2022-09-13T01:04:20;11.48;;;6.70;;
32906;SDS011;19259;51.590;5.320;2022-09-13T01:06:51;14.58;;;7.90;;
32906;SDS011;19259;51.590;5.320;2022-09-13T01:09:20;15.00;;;7.00;;
32906;SDS011;19259;51.590;5.320;2022-09-13T01:11:50;13.03;;;7.62;;
32906;SDS011;19259;51.590;5.320;2022-09-13T01:14:21;14.95;;;8.03;;
32906;SDS011;19259;51.590;5.320;2022-09-13T01:16:50;15.28;;;7.47;;
32906;SDS011;19259;51.590;5.320;2022-09-13T01:19:19;14.07;;;7.67;;
32906;SDS011;19259;51.590;5.320;2022-09-13T01:25:22;11.80;;;8.33;;
32906;SDS011;19259;51.590;5.320;2022-09-13T01:27:34;15.45;;;8.55;;
32906;SDS011;19259;51.590;5.320;2022-09-13T01:30:23;13.58;;;7.40;;
32906;SDS011;19259;51.590;5.320;2022-09-13T01:33:15;13.48;;;8.23;;
32906;SDS011;19259;51.590;5.320;2022-09-13T01:55:28;16.97;;;8.50;;
32906;SDS011;19259;51.590;5.320;2022-09-13T02:01:00;13.35;;;8.13;;
32906;SDS011;19259;51.590;5.320;2022-09-13T02:03:30;16.15;;;8.25;;
32906;SDS011;19259;51.590;5.320;2022-09-13T02:06:01;14.85;;;8.20;;
32906;SDS011;19259;51.590;5.320;2022-09-13T02:08:42;14.43;;;7.87;;
32906;SDS011;19259;51.590;5.320;2022-09-13T02:11:13;13.88;;;7.50;;
32906;SDS011;19259;51.590;5.320;2022-09-13T02:13:40;14.83;;;8.50;;
32906;SDS011;19259;51.590;5.320;2022-09-13T02:16:32;13.22;;;8.08;;
32906;SDS011;19259;51.590;5.320;2022-09-13T02:18:57;13.58;;;8.00;;
32906;SDS011;19259;51.590;5.320;2022-09-13T02:21:31;13.18;;;8.18;;
32906;SDS011;19259;51.590;5.320;2022-09-13T02:24:04;12.45;;;7.90;;
32906;SDS011;19259;51.590;5.320;2022-09-13T02:26:36;15.50;;;9.13;;
32906;SDS011;19259;51.590;5.320;2022-09-13T02:29:07;14.58;;;8.55;;
32906;SDS011;19259;51.590;5.320;2022-09-13T02:31:38;17.75;;;10.00;;
32906;SDS011;19259;51.590;5.320;2022-09-13T02:34:24;16.57;;;9.08;;
32906;SDS011;19259;51.590;5.320;2022-09-13T02:36:51;13.55;;;8.98;;
32906;SDS011;19259;51.590;5.320;2022-09-13T02:39:22;15.83;;;8.95;;
32906;SDS011;19259;51.590;5.320;2022-09-13T02:41:52;14.90;;;8.50;;
32906;SDS011;19259;51.590;5.320;2022-09-13T02:44:25;12.75;;;8.60;;
32906;SDS011;19259;51.590;5.320;2022-09-13T02:55:43;16.73;;;9.58;;
32906;SDS011;19259;51.590;5.320;2022-09-13T02:58:24;16.55;;;9.50;;
32906;SDS011;19259;51.590;5.320;2022-09-13T03:01:00;16.20;;;8.68;;
32906;SDS011;19259;51.590;5.320;2022-09-13T03:03:28;16.70;;;10.08;;
32906;SDS011;19259;51.590;5.320;2022-09-13T03:05:56;18.80;;;10.13;;
32906;SDS011;19259;51.590;5.320;2022-09-13T03:08:24;12.93;;;8.73;;
32906;SDS011;19259;51.590;5.320;2022-09-13T03:11:00;14.13;;;9.25;;
32906;SDS011;19259;51.590;5.320;2022-09-13T03:13:39;14.93;;;9.55;;
32906;SDS011;19259;51.590;5.320;2022-09-13T03:16:35;18.57;;;9.75;;
32906;SDS011;19259;51.590;5.320;2022-09-13T03:19:12;12.58;;;8.28;;
32906;SDS011;19259;51.590;5.320;2022-09-13T03:22:05;14.53;;;9.28;;
32906;SDS011;19259;51.590;5.320;2022-09-13T03:24:53;15.28;;;9.83;;
32906;SDS011;19259;51.590;5.320;2022-09-13T03:30:06;15.03;;;9.38;;
32906;SDS011;19259;51.590;5.320;2022-09-13T03:35:51;15.53;;;9.80;;
32906;SDS011;19259;51.590;5.320;2022-09-13T03:38:44;15.53;;;9.60;;
32906;SDS011;19259;51.590;5.320;2022-09-13T03:41:13;15.63;;;8.98;;
32906;SDS011;19259;51.590;5.320;2022-09-13T03:43:49;16.15;;;9.65;;
32906;SDS011;19259;51.590;5.320;2022-09-13T03:46:38;15.78;;;9.35;;
32906;SDS011;19259;51.590;5.320;2022-09-13T03:49:09;13.80;;;8.05;;
32906;SDS011;19259;51.590;5.320;2022-09-13T03:51:39;14.83;;;8.40;;
32906;SDS011;19259;51.590;5.320;2022-09-13T03:54:13;17.55;;;9.15;;
32906;SDS011;19259;51.590;5.320;2022-09-13T03:56:51;13.32;;;9.10;;
32906;SDS011;19259;51.590;5.320;2022-09-13T03:59:30;13.22;;;7.78;;
32906;SDS011;19259;51.590;5.320;2022-09-13T04:01:58;18.92;;;8.10;;
32906;SDS011;19259;51.590;5.320;2022-09-13T04:04:26;14.75;;;9.05;;
32906;SDS011;19259;51.590;5.320;2022-09-13T04:06:53;14.40;;;9.00;;
32906;SDS011;19259;51.590;5.320;2022-09-13T04:09:21;13.28;;;8.58;;
32906;SDS011;19259;51.590;5.320;2022-09-13T04:11:49;14.85;;;9.10;;
32906;SDS011;19259;51.590;5.320;2022-09-13T04:14:17;13.13;;;8.40;;
32906;SDS011;19259;51.590;5.320;2022-09-13T04:16:45;15.03;;;8.75;;
32906;SDS011;19259;51.590;5.320;2022-09-13T04:19:12;14.03;;;8.75;;
32906;SDS011;19259;51.590;5.320;2022-09-13T04:21:42;16.20;;;7.97;;
32906;SDS011;19259;51.590;5.320;2022-09-13T04:24:09;14.35;;;8.08;;
32906;SDS011;19259;51.590;5.320;2022-09-13T04:26:37;14.55;;;8.20;;
32906;SDS011;19259;51.590;5.320;2022-09-13T04:29:04;15.48;;;9.03;;
32906;SDS011;19259;51.590;5.320;2022-09-13T04:31:32;17.45;;;9.60;;
32906;SDS011;19259;51.590;5.320;2022-09-13T04:33:59;18.75;;;8.43;;
32906;SDS011;19259;51.590;5.320;2022-09-13T04:36:28;15.30;;;9.48;;
32906;SDS011;19259;51.590;5.320;2022-09-13T04:38:56;15.25;;;8.78;;
32906;SDS011;19259;51.590;5.320;2022-09-13T04:41:25;15.18;;;8.78;;
32906;SDS011;19259;51.590;5.320;2022-09-13T04:43:53;12.85;;;8.25;;
32906;SDS011;19259;51.590;5.320;2022-09-13T04:46:20;14.70;;;8.70;;
32906;SDS011;19259;51.590;5.320;2022-09-13T04:48:48;16.87;;;10.18;;
32906;SDS011;19259;51.590;5.320;2022-09-13T04:51:17;16.40;;;11.33;;
32906;SDS011;19259;51.590;5.320;2022-09-13T04:53:50;14.75;;;9.35;;
32906;SDS011;19259;51.590;5.320;2022-09-13T04:56:20;16.02;;;8.83;;
32906;SDS011;19259;51.590;5.320;2022-09-13T04:58:52;14.93;;;8.83;;
32906;SDS011;19259;51.590;5.320;2022-09-13T05:01:22;15.68;;;9.15;;
32906;SDS011;19259;51.590;5.320;2022-09-13T05:03:51;17.23;;;9.23;;
32906;SDS011;19259;51.590;5.320;2022-09-13T05:06:19;15.03;;;8.75;;
32906;SDS011;19259;51.590;5.320;2022-09-13T05:08:51;15.28;;;8.93;;
32906;SDS011;19259;51.590;5.320;2022-09-13T05:11:24;14.35;;;8.40;;
32906;SDS011;19259;51.590;5.320;2022-09-13T05:13:53;18.35;;;8.93;;
32906;SDS011;19259;51.590;5.320;2022-09-13T05:16:26;15.13;;;9.43;;
32906;SDS011;19259;51.590;5.320;2022-09-13T05:18:55;16.65;;;9.10;;
32906;SDS011;19259;51.590;5.320;2022-09-13T05:21:23;17.75;;;9.03;;
32906;SDS011;19259;51.590;5.320;2022-09-13T05:23:52;14.05;;;8.78;;
32906;SDS011;19259;51.590;5.320;2022-09-13T05:26:22;13.80;;;8.53;;
32906;SDS011;19259;51.590;5.320;2022-09-13T05:28:58;15.32;;;9.45;;
32906;SDS011;19259;51.590;5.320;2022-09-13T05:31:24;15.60;;;8.58;;
32906;SDS011;19259;51.590;5.320;2022-09-13T05:33:55;20.05;;;8.93;;
32906;SDS011;19259;51.590;5.320;2022-09-13T05:36:24;18.02;;;8.73;;
32906;SDS011;19259;51.590;5.320;2022-09-13T05:38:53;17.00;;;9.98;;
32906;SDS011;19259;51.590;5.320;2022-09-13T05:41:21;16.48;;;9.48;;
32906;SDS011;19259;51.590;5.320;2022-09-13T05:43:49;18.25;;;8.63;;
32906;SDS011;19259;51.590;5.320;2022-09-13T05:46:17;14.55;;;8.48;;
32906;SDS011;19259;51.590;5.320;2022-09-13T05:48:46;14.13;;;9.23;;
32906;SDS011;19259;51.590;5.320;2022-09-13T05:51:20;16.42;;;9.28;;
32906;SDS011;19259;51.590;5.320;2022-09-13T05:53:45;16.12;;;9.88;;
32906;SDS011;19259;51.590;5.320;2022-09-13T05:56:15;16.62;;;9.83;;
32906;SDS011;19259;51.590;5.320;2022-09-13T05:58:47;16.90;;;9.90;;
32906;SDS011;19259;51.590;5.320;2022-09-13T06:01:17;16.20;;;9.28;;
32906;SDS011;19259;51.590;5.320;2022-09-13T06:03:50;16.12;;;9.80;;
32906;SDS011;19259;51.590;5.320;2022-09-13T06:06:19;14.83;;;9.13;;
32906;SDS011;19259;51.590;5.320;2022-09-13T06:08:50;17.37;;;9.80;;
32906;SDS011;19259;51.590;5.320;2022-09-13T06:11:23;20.35;;;9.50;;
32906;SDS011;19259;51.590;5.320;2022-09-13T06:13:52;19.27;;;9.75;;
32906;SDS011;19259;51.590;5.320;2022-09-13T06:16:21;18.42;;;9.93;;
32906;SDS011;19259;51.590;5.320;2022-09-13T06:18:49;16.80;;;10.32;;
32906;SDS011;19259;51.590;5.320;2022-09-13T06:21:21;19.12;;;10.88;;
32906;SDS011;19259;51.590;5.320;2022-09-13T06:23:47;21.57;;;10.25;;
32906;SDS011;19259;51.590;5.320;2022-09-13T06:26:17;19.05;;;10.85;;
32906;SDS011;19259;51.590;5.320;2022-09-13T06:28:50;24.70;;;10.53;;
32906;SDS011;19259;51.590;5.320;2022-09-13T06:31:19;18.95;;;10.82;;
32906;SDS011;19259;51.590;5.320;2022-09-13T06:33:53;23.65;;;11.20;;
32906;SDS011;19259;51.590;5.320;2022-09-13T06:36:27;19.27;;;10.45;;
32906;SDS011;19259;51.590;5.320;2022-09-13T06:38:54;17.10;;;11.53;;
32906;SDS011;19259;51.590;5.320;2022-09-13T06:41:26;21.40;;;11.55;;
32906;SDS011;19259;51.590;5.320;2022-09-13T06:43:54;20.02;;;11.33;;
32906;SDS011;19259;51.590;5.320;2022-09-13T06:46:23;19.20;;;11.10;;
32906;SDS011;19259;51.590;5.320;2022-09-13T06:48:52;19.17;;;11.68;;
32906;SDS011;19259;51.590;5.320;2022-09-13T06:51:21;18.30;;;11.08;;
32906;SDS011;19259;51.590;5.320;2022-09-13T06:53:50;22.70;;;11.75;;
32906;SDS011;19259;51.590;5.320;2022-09-13T06:56:27;21.75;;;13.00;;
32906;SDS011;19259;51.590;5.320;2022-09-13T06:58:58;19.75;;;12.95;;
32906;SDS011;19259;51.590;5.320;2022-09-13T07:01:29;21.65;;;13.75;;
32906;SDS011;19259;51.590;5.320;2022-09-13T07:04:09;21.50;;;13.58;;
32906;SDS011;19259;51.590;5.320;2022-09-13T07:06:39;21.80;;;15.00;;
32906;SDS011;19259;51.590;5.320;2022-09-13T07:09:12;23.55;;;15.78;;
32906;SDS011;19259;51.590;5.320;2022-09-13T07:11:43;28.50;;;16.82;;
32906;SDS011;19259;51.590;5.320;2022-09-13T07:14:18;23.95;;;16.27;;
32906;SDS011;19259;51.590;5.320;2022-09-13T07:16:47;28.80;;;18.10;;
32906;SDS011;19259;51.590;5.320;2022-09-13T07:19:17;26.48;;;16.05;;
32906;SDS011;19259;51.590;5.320;2022-09-13T07:21:49;26.73;;;17.20;;
32906;SDS011;19259;51.590;5.320;2022-09-13T07:24:16;28.40;;;16.97;;
32906;SDS011;19259;51.590;5.320;2022-09-13T07:26:45;24.87;;;16.35;;
32906;SDS011;19259;51.590;5.320;2022-09-13T07:29:15;30.30;;;17.05;;
32906;SDS011;19259;51.590;5.320;2022-09-13T07:31:47;27.80;;;15.93;;
32906;SDS011;19259;51.590;5.320;2022-09-13T07:34:16;27.42;;;17.07;;
32906;SDS011;19259;51.590;5.320;2022-09-13T07:36:46;27.45;;;16.70;;
32906;SDS011;19259;51.590;5.320;2022-09-13T07:39:15;27.37;;;16.05;;
32906;SDS011;19259;51.590;5.320;2022-09-13T07:41:43;28.27;;;16.77;;
32906;SDS011;19259;51.590;5.320;2022-09-13T07:44:14;27.52;;;16.95;;
32906;SDS011;19259;51.590;5.320;2022-09-13T07:46:43;28.10;;;16.95;;
32906;SDS011;19259;51.590;5.320;2022-09-13T07:49:11;30.88;;;16.82;;
32906;SDS011;19259;51.590;5.320;2022-09-13T07:51:40;31.20;;;18.30;;
32906;SDS011;19259;51.590;5.320;2022-09-13T07:54:15;32.15;;;18.50;;
32906;SDS011;19259;51.590;5.320;2022-09-13T07:56:43;35.45;;;19.85;;
32906;SDS011;19259;51.590;5.320;2022-09-13T07:59:13;35.03;;;18.95;;
32906;SDS011;19259;51.590;5.320;2022-09-13T08:01:46;33.13;;;20.50;;
32906;SDS011;19259;51.590;5.320;2022-09-13T08:04:15;33.90;;;20.68;;
32906;SDS011;19259;51.590;5.320;2022-09-13T08:06:45;37.05;;;21.20;;
32906;SDS011;19259;51.590;5.320;2022-09-13T08:09:13;34.63;;;20.20;;
32906;SDS011;19259;51.590;5.320;2022-09-13T08:11:43;33.00;;;19.80;;
32906;SDS011;19259;51.590;5.320;2022-09-13T08:14:13;34.13;;;20.23;;
32906;SDS011;19259;51.590;5.320;2022-09-13T08:16:42;31.65;;;18.98;;
32906;SDS011;19259;51.590;5.320;2022-09-13T08:19:11;31.30;;;18.87;;
32906;SDS011;19259;51.590;5.320;2022-09-13T08:21:40;37.13;;;20.45;;
32906;SDS011;19259;51.590;5.320;2022-09-13T08:24:12;33.95;;;19.25;;
32906;SDS011;19259;51.590;5.320;2022-09-13T08:26:42;30.52;;;19.23;;
32906;SDS011;19259;51.590;5.320;2022-09-13T08:29:10;37.08;;;19.62;;
32906;SDS011;19259;51.590;5.320;2022-09-13T08:31:38;34.48;;;20.10;;
32906;SDS011;19259;51.590;5.320;2022-09-13T08:34:07;36.73;;;19.17;;
32906;SDS011;19259;51.590;5.320;2022-09-13T08:36:37;30.25;;;17.40;;
32906;SDS011;19259;51.590;5.320;2022-09-13T08:39:06;27.75;;;17.30;;
32906;SDS011;19259;51.590;5.320;2022-09-13T08:44:27;26.23;;;15.55;;
32906;SDS011;19259;51.590;5.320;2022-09-13T08:47:00;35.10;;;17.82;;
32906;SDS011;19259;51.590;5.320;2022-09-13T08:49:45;32.35;;;18.62;;
32906;SDS011;19259;51.590;5.320;2022-09-13T08:54:46;26.82;;;16.85;;
32906;SDS011;19259;51.590;5.320;2022-09-13T08:57:21;27.65;;;15.93;;
32906;SDS011;19259;51.590;5.320;2022-09-13T08:59:59;28.75;;;16.85;;
32906;SDS011;19259;51.590;5.320;2022-09-13T09:05:26;29.92;;;17.30;;
32906;SDS011;19259;51.590;5.320;2022-09-13T09:08:00;31.37;;;18.12;;
32906;SDS011;19259;51.590;5.320;2022-09-13T09:10:36;30.35;;;18.15;;
32906;SDS011;19259;51.590;5.320;2022-09-13T09:15:44;28.83;;;16.30;;
32906;SDS011;19259;51.590;5.320;2022-09-13T09:18:17;29.10;;;17.20;;
32906;SDS011;19259;51.590;5.320;2022-09-13T09:20:51;25.20;;;15.45;;
32906;SDS011;19259;51.590;5.320;2022-09-13T09:23:22;24.95;;;15.23;;
32906;SDS011;19259;51.590;5.320;2022-09-13T09:26:14;23.85;;;14.10;;
32906;SDS011;19259;51.590;5.320;2022-09-13T09:28:50;25.12;;;14.63;;
32906;SDS011;19259;51.590;5.320;2022-09-13T09:37:06;31.33;;;16.45;;
32906;SDS011;19259;51.590;5.320;2022-09-13T09:39:36;26.48;;;17.05;;
32906;SDS011;19259;51.590;5.320;2022-09-13T09:42:06;28.17;;;15.88;;
32906;SDS011;19259;51.590;5.320;2022-09-13T09:44:34;26.42;;;14.43;;
32906;SDS011;19259;51.590;5.320;2022-09-13T09:47:06;23.62;;;13.28;;
32906;SDS011;19259;51.590;5.320;2022-09-13T09:49:50;21.57;;;11.05;;
32906;SDS011;19259;51.590;5.320;2022-09-13T10:00:31;17.20;;;9.55;;
32906;SDS011;19259;51.590;5.320;2022-09-13T10:03:04;17.07;;;10.13;;
32906;SDS011;19259;51.590;5.320;2022-09-13T10:05:36;16.42;;;9.38;;
32906;SDS011;19259;51.590;5.320;2022-09-13T10:08:04;18.30;;;9.78;;
32906;SDS011;19259;51.590;5.320;2022-09-13T10:10:38;16.48;;;9.58;;
32906;SDS011;19259;51.590;5.320;2022-09-13T10:13:17;17.67;;;10.08;;
32906;SDS011;19259;51.590;5.320;2022-09-13T10:15:58;22.98;;;11.00;;
32906;SDS011;19259;51.590;5.320;2022-09-13T10:18:28;19.02;;;10.30;;
32906;SDS011;19259;51.590;5.320;2022-09-13T10:23:34;16.52;;;8.20;;
32906;SDS011;19259;51.590;5.320;2022-09-13T10:26:09;13.48;;;7.78;;
32906;SDS011;19259;51.590;5.320;2022-09-13T10:28:50;15.80;;;8.30;;
32906;SDS011;19259;51.590;5.320;2022-09-13T10:31:14;14.00;;;7.60;;
32906;SDS011;19259;51.590;5.320;2022-09-13T10:34:06;11.48;;;7.65;;
32906;SDS011;19259;51.590;5.320;2022-09-13T10:36:20;14.27;;;6.80;;
32906;SDS011;19259;51.590;5.320;2022-09-13T10:38:56;12.43;;;6.33;;
32906;SDS011;19259;51.590;5.320;2022-09-13T10:41:28;12.80;;;7.20;;
32906;SDS011;19259;51.590;5.320;2022-09-13T10:44:02;16.10;;;7.28;;
32906;SDS011;19259;51.590;5.320;2022-09-13T10:46:31;11.73;;;6.67;;
32906;SDS011;19259;51.590;5.320;2022-09-13T10:49:01;11.35;;;6.10;;
32906;SDS011;19259;51.590;5.320;2022-09-13T10:51:33;10.30;;;6.12;;
32906;SDS011;19259;51.590;5.320;2022-09-13T10:56:37;7.30;;;4.45;;
32906;SDS011;19259;51.590;5.320;2022-09-13T10:59:23;9.85;;;4.62;;
32906;SDS011;19259;51.590;5.320;2022-09-13T11:07:40;11.10;;;5.03;;
32906;SDS011;19259;51.590;5.320;2022-09-13T11:15:39;10.80;;;6.00;;
32906;SDS011;19259;51.590;5.320;2022-09-13T11:18:23;7.45;;;4.45;;
32906;SDS011;19259;51.590;5.320;2022-09-13T11:21:16;9.35;;;4.00;;
32906;SDS011;19259;51.590;5.320;2022-09-13T11:24:09;6.37;;;4.28;;
32906;SDS011;19259;51.590;5.320;2022-09-13T11:26:37;9.05;;;4.33;;
32906;SDS011;19259;51.590;5.320;2022-09-13T11:32:00;8.78;;;4.50;;
32906;SDS011;19259;51.590;5.320;2022-09-13T11:37:18;11.78;;;5.10;;
32906;SDS011;19259;51.590;5.320;2022-09-13T11:42:33;8.65;;;4.85;;
32906;SDS011;19259;51.590;5.320;2022-09-13T11:45:19;14.50;;;5.83;;
32906;SDS011;19259;51.590;5.320;2022-09-13T11:47:47;11.18;;;4.72;;
32906;SDS011;19259;51.590;5.320;2022-09-13T11:55:48;5.65;;;3.80;;
32906;SDS011;19259;51.590;5.320;2022-09-13T11:58:18;9.85;;;3.95;;
32906;SDS011;19259;51.590;5.320;2022-09-13T12:01:09;8.58;;;3.60;;
32906;SDS011;19259;51.590;5.320;2022-09-13T12:03:30;7.70;;;3.37;;
32906;SDS011;19259;51.590;5.320;2022-09-13T12:06:06;6.62;;;3.22;;
32906;SDS011;19259;51.590;5.320;2022-09-13T12:08:35;6.22;;;3.62;;
32906;SDS011;19259;51.590;5.320;2022-09-13T12:11:07;8.00;;;3.95;;
32906;SDS011;19259;51.590;5.320;2022-09-13T12:13:40;5.97;;;3.67;;
32906;SDS011;19259;51.590;5.320;2022-09-13T12:16:21;6.15;;;3.30;;
32906;SDS011;19259;51.590;5.320;2022-09-13T12:18:58;7.12;;;3.42;;
32906;SDS011;19259;51.590;5.320;2022-09-13T12:21:24;9.30;;;4.03;;
32906;SDS011;19259;51.590;5.320;2022-09-13T12:32:08;11.33;;;5.97;;
32906;SDS011;19259;51.590;5.320;2022-09-13T12:43:01;8.73;;;4.75;;
32906;SDS011;19259;51.590;5.320;2022-09-13T12:45:57;5.97;;;3.98;;
32906;SDS011;19259;51.590;5.320;2022-09-13T12:48:42;9.60;;;4.92;;
32906;SDS011;19259;51.590;5.320;2022-09-13T12:54:05;6.90;;;4.50;;
32906;SDS011;19259;51.590;5.320;2022-09-13T12:59:30;7.90;;;4.58;;
32906;SDS011;19259;51.590;5.320;2022-09-13T13:02:27;6.87;;;3.85;;
32906;SDS011;19259;51.590;5.320;2022-09-13T13:05:02;7.67;;;3.70;;
32906;SDS011;19259;51.590;5.320;2022-09-13T13:07:26;7.92;;;3.62;;
32906;SDS011;19259;51.590;5.320;2022-09-13T13:09:56;7.40;;;4.10;;
32906;SDS011;19259;51.590;5.320;2022-09-13T13:12:25;6.37;;;3.72;;
32906;SDS011;19259;51.590;5.320;2022-09-13T13:14:59;5.87;;;3.95;;
32906;SDS011;19259;51.590;5.320;2022-09-13T13:17:37;8.93;;;4.55;;
32906;SDS011;19259;51.590;5.320;2022-09-13T13:23:25;6.70;;;3.90;;
32906;SDS011;19259;51.590;5.320;2022-09-13T13:29:03;8.75;;;3.90;;
32906;SDS011;19259;51.590;5.320;2022-09-13T13:31:41;7.70;;;3.37;;
32906;SDS011;19259;51.590;5.320;2022-09-13T13:36:45;6.83;;;3.00;;
32906;SDS011;19259;51.590;5.320;2022-09-13T13:42:02;6.45;;;2.90;;
32906;SDS011;19259;51.590;5.320;2022-09-13T13:49:51;8.53;;;2.80;;
32906;SDS011;19259;51.590;5.320;2022-09-13T13:52:35;5.42;;;2.92;;
32906;SDS011;19259;51.590;5.320;2022-09-13T13:58:21;4.60;;;2.90;;
32906;SDS011;19259;51.590;5.320;2022-09-13T14:00:35;4.10;;;2.70;;
32906;SDS011;19259;51.590;5.320;2022-09-13T14:03:10;8.58;;;3.22;;
32906;SDS011;19259;51.590;5.320;2022-09-13T14:08:38;7.75;;;3.40;;
32906;SDS011;19259;51.590;5.320;2022-09-13T14:19:51;3.95;;;2.45;;
32906;SDS011;19259;51.590;5.320;2022-09-13T14:22:24;4.75;;;2.33;;
32906;SDS011;19259;51.590;5.320;2022-09-13T14:24:54;5.22;;;2.58;;
32906;SDS011;19259;51.590;5.320;2022-09-13T14:27:24;3.90;;;2.70;;
32906;SDS011;19259;51.590;5.320;2022-09-13T14:29:58;4.35;;;2.80;;
32906;SDS011;19259;51.590;5.320;2022-09-13T14:32:30;4.90;;;2.80;;
32906;SDS011;19259;51.590;5.320;2022-09-13T14:35:04;6.17;;;2.62;;
32906;SDS011;19259;51.590;5.320;2022-09-13T14:37:35;4.37;;;2.33;;
32906;SDS011;19259;51.590;5.320;2022-09-13T14:42:47;4.53;;;2.45;;
32906;SDS011;19259;51.590;5.320;2022-09-13T14:45:21;3.60;;;2.25;;
32906;SDS011;19259;51.590;5.320;2022-09-13T14:47:57;4.42;;;2.37;;
32906;SDS011;19259;51.590;5.320;2022-09-13T14:50:33;4.00;;;2.60;;
32906;SDS011;19259;51.590;5.320;2022-09-13T14:53:06;4.60;;;2.00;;
32906;SDS011;19259;51.590;5.320;2022-09-13T14:55:40;4.78;;;2.08;;
32906;SDS011;19259;51.590;5.320;2022-09-13T14:58:18;4.78;;;2.17;;
32906;SDS011;19259;51.590;5.320;2022-09-13T15:00:47;5.05;;;1.77;;
32906;SDS011;19259;51.590;5.320;2022-09-13T15:05:56;3.92;;;1.80;;
32906;SDS011;19259;51.590;5.320;2022-09-13T15:11:03;5.25;;;1.87;;
32906;SDS011;19259;51.590;5.320;2022-09-13T15:13:32;5.58;;;1.90;;
32906;SDS011;19259;51.590;5.320;2022-09-13T15:16:22;4.83;;;1.85;;
32906;SDS011;19259;51.590;5.320;2022-09-13T15:18:32;3.72;;;1.92;;
32906;SDS011;19259;51.590;5.320;2022-09-13T15:23:38;4.75;;;1.70;;
32906;SDS011;19259;51.590;5.320;2022-09-13T15:26:08;3.65;;;1.70;;
32906;SDS011;19259;51.590;5.320;2022-09-13T15:31:20;8.13;;;1.90;;
32906;SDS011;19259;51.590;5.320;2022-09-13T15:34:18;5.87;;;1.92;;
32906;SDS011;19259;51.590;5.320;2022-09-13T15:36:37;2.52;;;2.02;;
32906;SDS011;19259;51.590;5.320;2022-09-13T15:41:39;3.45;;;1.70;;
32906;SDS011;19259;51.590;5.320;2022-09-13T15:44:08;3.33;;;1.65;;
32906;SDS011;19259;51.590;5.320;2022-09-13T15:46:45;7.00;;;1.80;;
32906;SDS011;19259;51.590;5.320;2022-09-13T15:49:15;5.28;;;2.10;;
32906;SDS011;19259;51.590;5.320;2022-09-13T15:51:44;3.95;;;1.90;;
32906;SDS011;19259;51.590;5.320;2022-09-13T15:54:13;2.98;;;1.72;;
32906;SDS011;19259;51.590;5.320;2022-09-13T15:56:43;4.28;;;2.00;;
32906;SDS011;19259;51.590;5.320;2022-09-13T15:59:17;7.12;;;2.00;;
32906;SDS011;19259;51.590;5.320;2022-09-13T16:01:47;4.72;;;2.00;;
32906;SDS011;19259;51.590;5.320;2022-09-13T16:04:21;5.42;;;2.20;;
32906;SDS011;19259;51.590;5.320;2022-09-13T16:06:45;4.58;;;2.15;;
32906;SDS011;19259;51.590;5.320;2022-09-13T16:09:17;5.70;;;1.90;;
32906;SDS011;19259;51.590;5.320;2022-09-13T16:11:46;8.75;;;1.90;;
32906;SDS011;19259;51.590;5.320;2022-09-13T16:14:17;9.40;;;1.60;;
32906;SDS011;19259;51.590;5.320;2022-09-13T16:16:48;4.50;;;1.85;;
32906;SDS011;19259;51.590;5.320;2022-09-13T16:19:21;5.70;;;1.95;;
32906;SDS011;19259;51.590;5.320;2022-09-13T16:21:46;4.33;;;1.57;;
32906;SDS011;19259;51.590;5.320;2022-09-13T16:24:15;5.50;;;1.90;;
32906;SDS011;19259;51.590;5.320;2022-09-13T16:26:43;3.83;;;1.77;;
32906;SDS011;19259;51.590;5.320;2022-09-13T16:29:13;5.37;;;1.57;;
32906;SDS011;19259;51.590;5.320;2022-09-13T16:31:40;4.87;;;1.70;;
32906;SDS011;19259;51.590;5.320;2022-09-13T16:34:08;4.12;;;1.40;;
32906;SDS011;19259;51.590;5.320;2022-09-13T16:36:36;6.78;;;1.90;;
32906;SDS011;19259;51.590;5.320;2022-09-13T16:39:06;4.10;;;1.60;;
32906;SDS011;19259;51.590;5.320;2022-09-13T16:41:34;2.22;;;1.10;;
32906;SDS011;19259;51.590;5.320;2022-09-13T16:44:01;5.15;;;1.30;;
32906;SDS011;19259;51.590;5.320;2022-09-13T16:46:29;3.12;;;1.37;;
32906;SDS011;19259;51.590;5.320;2022-09-13T16:48:57;2.92;;;1.35;;
32906;SDS011;19259;51.590;5.320;2022-09-13T16:51:25;4.37;;;1.50;;
32906;SDS011;19259;51.590;5.320;2022-09-13T16:53:52;3.92;;;1.37;;
32906;SDS011;19259;51.590;5.320;2022-09-13T16:56:21;4.62;;;1.55;;
32906;SDS011;19259;51.590;5.320;2022-09-13T16:58:51;6.17;;;1.90;;
32906;SDS011;19259;51.590;5.320;2022-09-13T17:01:23;3.33;;;1.50;;
32906;SDS011;19259;51.590;5.320;2022-09-13T17:03:52;4.37;;;2.10;;
32906;SDS011;19259;51.590;5.320;2022-09-13T17:06:21;5.30;;;1.92;;
32906;SDS011;19259;51.590;5.320;2022-09-13T17:08:51;4.47;;;1.35;;
32906;SDS011;19259;51.590;5.320;2022-09-13T17:11:21;3.95;;;1.65;;
32906;SDS011;19259;51.590;5.320;2022-09-13T17:13:50;3.77;;;2.05;;
32906;SDS011;19259;51.590;5.320;2022-09-13T17:16:20;6.20;;;1.77;;
32906;SDS011;19259;51.590;5.320;2022-09-13T17:18:49;8.13;;;2.30;;
32906;SDS011;19259;51.590;5.320;2022-09-13T17:21:18;4.30;;;1.67;;
32906;SDS011;19259;51.590;5.320;2022-09-13T17:23:46;5.33;;;1.70;;
32906;SDS011;19259;51.590;5.320;2022-09-13T17:26:14;5.55;;;2.15;;
32906;SDS011;19259;51.590;5.320;2022-09-13T17:28:41;5.10;;;1.90;;
32906;SDS011;19259;51.590;5.320;2022-09-13T17:31:09;7.83;;;2.45;;
32906;SDS011;19259;51.590;5.320;2022-09-13T17:33:37;7.05;;;2.75;;
32906;SDS011;19259;51.590;5.320;2022-09-13T17:36:10;6.80;;;2.65;;
32906;SDS011;19259;51.590;5.320;2022-09-13T17:38:36;6.42;;;2.40;;
32906;SDS011;19259;51.590;5.320;2022-09-13T17:41:04;5.60;;;2.30;;
32906;SDS011;19259;51.590;5.320;2022-09-13T17:43:36;4.50;;;1.90;;
32906;SDS011;19259;51.590;5.320;2022-09-13T17:46:07;4.00;;;1.92;;
32906;SDS011;19259;51.590;5.320;2022-09-13T17:48:42;4.20;;;1.90;;
32906;SDS011;19259;51.590;5.320;2022-09-13T17:51:11;6.78;;;2.10;;
32906;SDS011;19259;51.590;5.320;2022-09-13T17:53:49;3.50;;;1.87;;